Latest Weather Observations for Jacup

IDW60801

Issued at 12:32 pm WST Monday 30 March 2015 (issued every 30 minutes, with the page automatically refreshed every 10 minutes)

About weather observations | Map of weather stations | Latest weather observations for WA | Other Formats
Station Details ID: 010905 Name: JACUP Lat: -33.89 Lon: 119.11 Height: 305.0 m
Data from the previous 72 hours. | See also: Recent months at Jacup
Date/Time
WST
Temp
°C
App
Temp
°C
Dew
Point
Rel
Hum
%
Delta-T
°C
Wind Press
QNH
hPa
Press
MSL
hPa
Rain
since 9 am
mm
Dir
 
Spd
km/h
Gust
km/h
Spd
kts
Gust
kts
30/12:30pm 33.7 29.3 9.0 22 14.2 NW 22 44 12 24 1015.6 1014.6 0.0
30/12:00pm 32.0 28.0 8.9 24 13.1 NNW 20 33 11 18 1016.0 1015.0 0.0
30/11:30am 31.4 27.0 9.0 25 12.7 N 22 32 12 17 1016.3 1015.3 0.0
30/11:00am 31.4 27.4 9.0 25 12.7 NNW 20 32 11 17 1016.8 1015.9 0.0
30/10:30am 30.2 25.5 9.1 27 11.9 N 24 33 13 18 1017.3 1016.4 0.0
30/10:00am 28.8 23.4 9.5 30 10.9 N 28 43 15 23 1017.9 1016.9 0.0
30/09:30am 26.6 20.8 9.5 34 9.6 N 30 41 16 22 1018.2 1017.2 0.0
30/09:00am 24.5 19.3 10.4 41 7.9 N 28 39 15 21 1018.4 1017.4 0.0
30/08:30am 22.3 17.4 10.1 46 6.7 N 26 39 14 21 1018.7 1017.7 0.0
30/08:00am 19.9 16.4 10.9 56 5.0 N 20 30 11 16 1018.6 1017.6 0.0
30/07:30am 17.1 13.9 11.2 68 3.2 N 19 26 10 14 1018.6 1017.6 0.0
30/07:00am 15.1 12.2 10.9 76 2.3 N 17 20 9 11 1018.4 1017.4 0.0
30/06:30am 13.1 10.4 10.5 84 1.4 N 15 19 8 10 1018.4 1017.4 0.0
30/06:00am 13.4 10.9 10.9 85 1.3 N 15 19 8 10 1018.2 1017.2 0.0
30/05:30am 13.1 10.6 11.0 87 1.1 N 15 19 8 10 1018.2 1017.2 0.0
30/05:00am 13.4 10.9 11.1 86 1.2 N 15 20 8 11 1018.0 1017.0 0.0
30/04:30am 13.4 10.6 11.3 87 1.1 N 17 20 9 11 1017.7 1016.7 0.0
30/04:00am 13.4 10.6 11.5 88 1.0 N 17 20 9 11 1017.6 1016.6 0.0
30/03:30am 13.8 11.2 12.0 89 1.0 N 17 22 9 12 1017.8 1016.8 0.0
30/03:00am 13.9 11.2 11.8 87 1.1 N 17 20 9 11 1017.7 1016.7 0.0
30/02:30am 13.7 11.4 11.7 88 1.1 N 15 19 8 10 1017.8 1016.8 0.0
30/02:00am 14.0 11.8 12.2 89 1.0 N 15 19 8 10 1018.1 1017.1 0.0
30/01:30am 14.1 12.6 12.0 87 1.1 NNE 11 15 6 8 1018.5 1017.5 0.0
30/01:00am 14.8 13.5 12.5 86 1.3 NE 11 15 6 8 1018.7 1017.7 0.0
30/12:30am 14.2 12.6 12.8 91 0.8 NE 13 17 7 9 1019.0 1018.0 0.0
30/12:00am 13.8 12.6 12.7 93 0.6 NE 11 13 6 7 1019.3 1018.4 0.0
 
Date/Time
WST
Temp
°C
App
Temp
°C
Dew
Point
Rel
Hum
%
Delta-T
°C
Wind Press
QNH
hPa
Press
MSL
hPa
Rain
since 9 am
mm
Dir
 
Spd
km/h
Gust
km/h
Spd
kts
Gust
kts
29/11:30pm 14.3 13.2 13.2 93 0.6 ENE 11 15 6 8 1019.6 1018.7 0.0
29/11:00pm 14.4 13.4 13.4 94 0.6 ENE 11 15 6 8 1019.7 1018.8 0.0
29/10:30pm 14.7 13.4 13.7 94 0.6 ENE 13 17 7 9 1019.9 1019.0 0.0
29/10:00pm 14.8 13.9 13.7 93 0.6 E 11 13 6 7 1020.3 1019.4 0.0
29/09:30pm 15.1 15.0 13.8 92 0.7 ESE 7 11 4 6 1020.5 1019.6 0.0
29/09:00pm 15.4 14.9 13.8 90 0.9 ESE 9 13 5 7 1020.6 1019.7 0.0
29/08:30pm 15.8 15.2 13.6 87 1.3 ESE 9 13 5 7 1020.5 1019.6 0.0
29/08:00pm 16.2 15.2 13.5 84 1.5 ESE 11 15 6 8 1020.5 1019.6 0.0
29/07:30pm 16.8 15.8 13.5 81 1.9 E 11 17 6 9 1020.3 1019.4 0.0
29/07:00pm 17.5 15.9 13.8 79 2.1 E 15 20 8 11 1019.9 1019.0 0.0
29/06:30pm 18.3 17.0 13.6 74 2.7 ESE 13 15 7 8 1019.7 1018.8 0.0
29/06:00pm 19.8 17.7 13.5 67 3.6 ESE 17 24 9 13 1019.5 1018.6 0.0
29/05:30pm 21.4 18.7 13.6 61 4.6 ESE 20 26 11 14 1019.3 1018.4 0.0
29/05:00pm 23.0 19.8 13.2 54 5.7 ESE 22 30 12 16 1019.2 1018.2 0.0
29/04:30pm 24.6 20.6 12.9 48 6.9 ESE 26 33 14 18 1019.1 1018.1 0.0
29/04:00pm 28.0 26.3 8.3 29 10.8 SSE 7 11 4 6 1018.9 1017.9 0.0
29/03:30pm 28.0 26.3 8.3 29 10.9 SSW 7 11 4 6 1018.9 1017.9 0.0
29/03:00pm 28.1 25.6 8.4 29 10.9 NNW 11 19 6 10 1019.2 1018.2 0.0
29/02:30pm 27.7 26.6 8.6 30 10.6 NE 4 22 2 12 1019.2 1018.2 0.0
29/02:00pm 27.6 25.6 8.5 30 10.5 NE 9 17 5 9 1019.6 1018.7 0.0
29/01:30pm 27.5 25.2 8.9 31 10.3 NNW 11 20 6 11 1019.9 1019.0 0.0
29/01:00pm 27.4 24.8 7.8 29 10.7 N 11 19 6 10 1020.3 1019.4 0.0
29/12:30pm 26.3 24.1 7.8 31 10.0 SSW 9 20 5 11 1020.7 1019.8 0.0
29/12:00pm 25.6 23.7 9.0 35 9.1 N 9 17 5 9 1021.3 1020.3 0.0
29/11:30am 24.5 21.5 9.3 38 8.4 N 15 24 8 13 1021.7 1020.7 0.0
29/11:00am 23.2 20.3 9.6 42 7.5 NNE 15 24 8 13 1022.2 1021.3 0.0
29/10:30am 22.4 19.8 9.2 43 7.2 NNE 13 26 7 14 1022.7 1021.8 0.0
29/10:00am 21.2 19.0 10.7 51 5.8 NE 13 19 7 10 1023.0 1022.1 0.0
29/09:30am 19.1 17.7 12.1 64 3.9 NNE 11 17 6 9 1023.3 1022.4 0.0
29/09:00am 17.0 15.8 12.9 77 2.3 NNE 11 15 6 8 1023.5 1022.6 0.0
29/08:30am 14.0 13.3 13.1 94 0.5 N 9 13 5 7 1023.6 1022.7 0.0
29/08:00am 12.7 11.3 12.1 96 0.3 N 11 15 6 8 1023.3 1022.4 0.0
29/07:30am 11.8 9.7 11.2 96 0.3 N 13 17 7 9 1023.2 1022.3 0.0
29/07:00am 10.9 8.6 10.3 96 0.3 N 13 19 7 10 1023.0 1022.1 0.0
29/06:30am 11.0 9.1 10.4 96 0.3 N 11 13 6 7 1022.9 1022.0 0.0
29/06:00am 11.4 9.5 10.6 95 0.4 N 11 13 6 7 1022.8 1021.9 0.0
29/05:30am 11.7 10.0 11.1 96 0.3 N 11 13 6 7 1022.6 1021.7 0.0
29/05:00am 10.1 8.6 9.2 94 0.5 N 7 11 4 6 1022.2 1021.3 0.0
29/04:30am 10.4 9.2 9.5 94 0.5 N 6 7 3 4 1022.1 1021.1 0.0
29/04:00am 11.3 9.4 10.5 95 0.4 N 11 11 6 6 1021.9 1020.9 0.0
29/03:30am 11.5 9.7 10.7 95 0.4 N 11 13 6 7 1021.8 1020.8 0.0
29/03:00am 11.4 9.5 10.5 94 0.5 N 11 13 6 7 1021.6 1020.6 0.0
29/02:30am 11.6 9.8 10.7 94 0.5 N 11 11 6 6 1021.6 1020.6 0.0
29/02:00am 12.2 11.3 11.3 94 0.5 NNE 7 9 4 5 1021.7 1020.7 0.0
29/01:30am 11.4 11.5 10.3 93 0.6 CALM 0 0 0 0 1021.9 1020.9 0.0
29/01:00am 12.3 11.5 11.0 92 0.7 ENE 6 7 3 4 1022.1 1021.1 0.0
29/12:30am 13.3 12.6 12.0 92 0.7 ENE 7 9 4 5 1022.1 1021.1 0.0
29/12:00am 12.7 13.3 11.9 95 0.4 CALM 0 0 0 0 1022.1 1021.1 0.0
 
Date/Time
WST
Temp
°C
App
Temp
°C
Dew
Point
Rel
Hum
%
Delta-T
°C
Wind Press
QNH
hPa
Press
MSL
hPa
Rain
since 9 am
mm
Dir
 
Spd
km/h
Gust
km/h
Spd
kts
Gust
kts
28/11:30pm 10.9 10.9 9.8 93 0.6 CALM 0 0 0 0 1022.1 1021.1 0.0
28/11:00pm 11.2 11.3 10.1 93 0.6 CALM 0 0 0 0 1022.1 1021.1 0.0
28/10:30pm 11.4 11.5 10.1 92 0.7 CALM 0 0 0 0 1022.0 1021.0 0.0
28/10:00pm 12.2 11.3 10.8 91 0.7 ENE 6 7 3 4 1022.1 1021.1 0.0
28/09:30pm 12.7 11.8 11.3 91 0.7 ENE 7 9 4 5 1022.2 1021.3 0.0
28/09:00pm 12.8 11.9 10.7 87 1.1 ENE 6 9 3 5 1022.2 1021.3 0.0
28/08:30pm 13.9 13.3 11.8 87 1.1 E 6 9 3 5 1021.9 1020.9 0.0
28/08:00pm 14.8 14.1 12.1 84 1.5 ESE 7 11 4 6 1021.8 1020.8 0.0
28/07:30pm 15.7 14.8 12.5 81 1.8 ESE 9 11 5 6 1021.4 1020.4 0.0
28/07:00pm 16.9 15.4 12.0 73 2.7 ESE 11 15 6 8 1021.0 1020.0 0.0
28/06:30pm 17.8 15.7 12.3 70 3.1 SSE 15 20 8 11 1020.5 1019.6 0.0
28/06:00pm 18.9 16.0 12.2 65 3.8 SE 19 24 10 13 1020.2 1019.3 0.0
28/05:30pm 20.2 17.0 11.9 59 4.7 SE 20 33 11 18 1020.0 1019.1 0.0
28/05:00pm 21.7 18.8 12.3 55 5.4 SSE 19 26 10 14 1019.5 1018.6 0.0
28/04:30pm 23.0 20.0 12.6 52 6.0 SSE 20 32 11 17 1019.3 1018.4 0.0
28/04:00pm 23.7 20.7 12.7 50 6.4 SE 20 30 11 16 1019.1 1018.1 0.0
28/03:30pm 25.2 23.0 12.1 44 7.6 S 15 22 8 12 1018.9 1017.9 0.0
28/03:00pm 24.5 22.4 11.1 43 7.6 SSE 13 20 7 11 1018.9 1017.9 0.0
28/02:30pm 26.5 23.8 8.9 33 9.7 WSW 13 24 7 13 1018.9 1017.9 0.0
28/02:00pm 25.6 23.6 8.6 34 9.3 SSW 9 19 5 10 1019.0 1018.0 0.0
28/01:30pm 25.6 22.7 8.1 33 9.5 W 13 22 7 12 1019.2 1018.2 0.0
28/01:00pm 26.3 23.8 9.6 35 9.3 W 13 20 7 11 1019.4 1018.5 0.0
28/12:30pm 25.0 23.3 9.7 38 8.5 SSW 9 17 5 9 1019.9 1019.0 0.0
28/12:00pm 25.0 22.6 10.1 39 8.3 W 13 22 7 12 1020.2 1019.3 0.0
28/11:30am 23.8 21.8 11.5 46 7.0 SSW 13 19 7 10 1020.6 1019.7 0.0
28/11:00am 23.1 21.9 11.5 48 6.6 WSW 9 17 5 9 1020.7 1019.8 0.0
28/10:30am 22.6 20.8 12.0 51 6.1 SW 13 20 7 11 1020.9 1019.9 0.0
28/10:00am 21.5 19.5 12.6 57 5.1 SW 15 20 8 11 1021.0 1020.0 0.0
28/09:30am 20.5 18.2 13.0 62 4.3 SSW 17 24 9 13 1021.3 1020.3 0.0
28/09:00am 19.4 16.6 13.1 67 3.6 SSW 20 28 11 15 1021.5 1020.5 0.0
28/08:30am 18.5 16.0 13.6 73 2.8 SSW 19 26 10 14 1021.3 1020.3 0.0
28/08:00am 16.5 14.4 13.6 83 1.7 SSW 17 24 9 13 1021.2 1020.2 0.0
28/07:30am 14.6 13.3 13.6 94 0.6 SSW 13 19 7 10 1021.1 1020.1 0.0
28/07:00am 13.3 12.1 12.7 96 0.3 SSW 11 15 6 8 1020.9 1019.9 0.0
28/06:30am 12.3 10.0 11.7 96 0.3 SSW 15 20 8 11 1020.4 1019.5 0.0
28/06:00am 11.1 8.8 10.5 96 0.3 SSW 13 15 7 8 1020.2 1019.3 0.0
28/05:30am 8.5 6.1 7.1 91 0.7 WSW 9 11 5 6 1019.9 1019.0 0.0
28/05:00am 9.4 7.6 8.0 91 0.7 W 7 9 4 5 1019.5 1018.6 0.0
28/04:30am 9.9 7.5 8.5 91 0.7 WSW 11 13 6 7 1019.2 1018.2 0.0
28/04:00am 9.6 7.0 7.9 89 0.8 W 11 13 6 7 1019.2 1018.2 0.0
28/03:30am 9.7 7.5 8.0 89 0.8 WSW 9 11 5 6 1019.1 1018.1 0.0
28/03:00am 10.0 7.8 7.9 87 1.0 WSW 9 11 5 6 1019.1 1018.1 0.0
28/02:30am 9.6 7.2 7.0 84 1.2 W 9 13 5 7 1019.1 1018.1 0.0
28/02:00am 9.6 7.7 7.4 86 1.1 WNW 7 11 4 6 1019.2 1018.2 0.0
28/01:30am 10.3 8.3 7.2 81 1.5 WNW 7 11 4 6 1019.2 1018.2 0.0
28/01:00am 10.7 8.9 7.9 83 1.4 WNW 7 9 4 5 1019.3 1018.4 0.0
28/12:30am 10.6 8.9 8.2 85 1.2 NW 7 9 4 5 1019.3 1018.4 0.0
28/12:00am 10.3 9.7 7.4 82 1.4 CALM 0 0 0 0 1019.4 1018.5 0.0
 
Date/Time
WST
Temp
°C
App
Temp
°C
Dew
Point
Rel
Hum
%
Delta-T
°C
Wind Press
QNH
hPa
Press
MSL
hPa
Rain
since 9 am
mm
Dir
 
Spd
km/h
Gust
km/h
Spd
kts
Gust
kts
27/11:30pm 10.9 10.5 8.1 83 1.4 CALM 0 0 0 0 1019.5 1018.6 0.0
27/11:00pm 11.9 11.2 8.6 80 1.7 N 2 6 1 3 1019.8 1018.9 0.0
27/10:30pm 12.6 10.7 9.2 80 1.7 N 9 11 5 6 1019.9 1019.0 0.0
27/10:00pm 13.6 13.5 9.6 77 2.1 CALM 0 0 0 0 1020.0 1019.1 0.0
27/09:30pm 13.0 12.8 8.9 76 2.1 CALM 0 0 0 0 1020.1 1019.2 0.0
27/09:00pm 13.3 13.0 8.6 73 2.4 CALM 0 0 0 0 1020.5 1019.6 0.0
27/08:30pm 14.7 14.5 9.1 69 2.9 CALM 0 0 0 0 1020.4 1019.5 0.0
27/08:00pm 16.7 16.8 10.3 66 3.4 CALM 0 0 0 0 1020.3 1019.4 0.0
27/07:30pm 17.9 16.4 10.5 62 4.0 SE 9 9 5 5 1020.1 1019.2 0.0
27/07:00pm 18.6 17.7 11.2 62 4.1 ESE 7 11 4 6 1019.9 1019.0 0.0
27/06:30pm 19.1 17.7 10.9 59 4.5 ESE 9 13 5 7 1019.7 1018.8 0.0
27/06:00pm 20.0 17.9 11.0 56 5.0 ESE 13 17 7 9 1019.4 1018.5 0.0
27/05:30pm 20.6 17.7 9.8 50 5.9 E 15 20 8 11 1019.4 1018.5 0.0
27/05:00pm 21.4 18.7 10.3 49 6.1 ESE 15 20 8 11 1019.4 1018.5 0.0
27/04:30pm 22.3 20.0 7.3 38 7.9 E 9 11 5 6 1019.3 1018.4 0.0
27/04:00pm 22.6 20.2 7.2 37 8.1 E 9 15 5 8 1019.3 1018.4 0.0
27/03:30pm 22.9 20.5 7.0 36 8.3 E 9 11 5 6 1019.4 1018.5 0.0
27/03:00pm 23.4 22.3 7.1 35 8.6 SE 2 9 1 5 1019.4 1018.5 0.0
27/02:30pm 23.5 21.5 7.2 35 8.6 S 7 11 4 6 1019.6 1018.7 0.0
27/02:00pm 23.9 22.0 7.5 35 8.7 NW 7 11 4 6 1020.0 1019.1 0.0
27/01:30pm 23.2 21.2 6.9 35 8.5 NW 7 15 4 8 1020.4 1019.5 0.0
27/01:00pm 23.6 21.2 6.8 34 8.8 W 9 15 5 8 1021.0 1020.0 0.0

Other Formats:

Comma delimited format used in spreadsheet applications
http://www.bom.gov.au/fwo/IDW60801/IDW60801.95636.axf

JavaScript Object Notation format (JSON) in row-major order
http://www.bom.gov.au/fwo/IDW60801/IDW60801.95636.json